CEF weather

Westover ARB/Metropolitan Airport
Springfield/Chicopee, Massachusetts, United States

Public forecast

Using degrees Fahrenheit for public forecast. Weather courtesy of forecast.io.

METAR (pilot weather report)

Retrieved 2019/07/20 15:56 UTC (60 minutes ago):

KCEF 201556Z 29009KT 10SM SCT036 OVC200 33/23 A2981 RMK AO2A SLP098 T03290232

TAF (pilot weather forecast)

Forecast is more than 6 hours old.

Retrieved 2019/07/20 10:13 UTC (7 hours ago):

TAF KCEF 201000Z 2010/2116 VRB06KT 9999 FEW060 FEW120 BKN200 QNH2985INS BECMG 2012/2013 27009KT 9999 FEW050 SCT150 QNH2975INS BECMG 2022/2023 VRB06KT 9999 FEW050 FEW120 QNH2973INS BECMG 2113/2114 24009KT 9999 VCTS FEW035CB BKN060 BKN200 QNH2973INS TX38/2020Z TN24/2010Z